Time;durP1;ratioP1;P1;durP2;ratioP2;P2;SDS_P1;SDS_P2;PMS_P1;PMS_P2;Temp;Humidity;BMP_temperature;BMP_pressure;BME280_temperature;BME280_humidity;BME280_pressure;Samples;Min_cycle;Max_cycle;Signal;HPM_P1;HPM_P2
2022/01/07 00:00:25;;;;;;;4.85;0.45;;;;;;;3.64;100.00;100276.25;5061528;28;20039;-52
2022/01/07 00:02:53;;;;;;;2.10;0.43;;;;;;;3.49;100.00;100274.19;5047613;28;20123;-53
2022/01/07 00:05:19;;;;;;;3.53;1.38;;;;;;;3.45;100.00;100270.19;5062626;28;20047;-51
2022/01/07 00:07:45;;;;;;;0.10;0.03;;;;;;;3.39;100.00;100275.22;5071871;28;20067;-53
2022/01/07 00:10:15;;;;;;;1.38;0.30;;;;;;;3.26;100.00;100273.78;5060941;28;20028;-50
2022/01/07 00:12:41;;;;;;;3.20;0.32;;;;;;;3.13;100.00;100270.72;5061976;28;20031;-51
2022/01/07 00:15:07;;;;;;;2.25;0.10;;;;;;;3.02;100.00;100284.84;5059460;28;20036;-49
2022/01/07 00:17:33;;;;;;;6.32;0.10;;;;;;;2.89;100.00;100286.16;5061289;28;20032;-51
2022/01/07 00:19:59;;;;;;;3.90;0.40;;;;;;;2.75;100.00;100283.03;5059779;28;20741;-53
2022/01/07 00:22:26;;;;;;;2.33;0.40;;;;;;;2.69;100.00;100291.50;5061614;28;20403;-50
2022/01/07 00:24:51;;;;;;;5.97;0.28;;;;;;;2.70;100.00;100284.47;5051303;28;20037;-50
2022/01/07 00:27:17;;;;;;;2.13;0.73;;;;;;;2.58;100.00;100282.03;5060417;28;20127;-52
2022/01/07 00:29:42;;;;;;;2.60;0.30;;;;;;;2.59;100.00;100273.19;5054330;28;20031;-50
2022/01/07 00:32:08;;;;;;;2.28;0.47;;;;;;;2.54;100.00;100274.59;5061660;28;20036;-47
2022/01/07 00:34:33;;;;;;;3.90;0.47;;;;;;;2.49;100.00;100275.03;5058076;28;20490;-50
2022/01/07 00:36:59;;;;;;;2.75;0.05;;;;;;;2.48;100.00;100268.16;5061025;28;20033;-51
2022/01/07 00:39:24;;;;;;;4.10;1.55;;;;;;;2.44;100.00;100269.41;5059618;28;20025;-51
2022/01/07 00:41:49;;;;;;;3.28;1.02;;;;;;;2.47;100.00;100263.06;5064769;28;20509;-49
2022/01/07 00:44:15;;;;;;;11.73;0.28;;;;;;;2.35;100.00;100265.88;5063790;28;20493;-49
2022/01/07 00:46:41;;;;;;;3.70;0.20;;;;;;;2.33;100.00;100267.78;5058421;28;20032;-50
2022/01/07 00:49:06;;;;;;;3.35;0.38;;;;;;;2.39;100.00;100275.06;5061415;28;20462;-50
2022/01/07 00:51:31;;;;;;;7.20;0.40;;;;;;;2.43;100.00;100273.00;5063944;28;20035;-52
2022/01/07 00:53:57;;;;;;;1.42;0.38;;;;;;;2.43;100.00;100272.16;5060744;28;20114;-52
2022/01/07 00:56:22;;;;;;;1.65;0.10;;;;;;;2.38;100.00;100268.19;5063248;28;20028;-52
2022/01/07 00:58:48;;;;;;;7.72;0.30;;;;;;;2.48;100.00;100267.31;5056939;28;20044;-50
2022/01/07 01:01:13;;;;;;;3.53;0.52;;;;;;;2.45;100.00;100259.75;5059007;28;20071;-47
2022/01/07 01:03:40;;;;;;;2.78;0.47;;;;;;;2.29;100.00;100250.72;5064037;28;20032;-52
2022/01/07 01:06:06;;;;;;;3.20;0.32;;;;;;;2.18;100.00;100256.13;5061657;28;20517;-50
2022/01/07 01:08:31;;;;;;;2.70;0.60;;;;;;;2.23;100.00;100255.72;5059387;28;20104;-46
2022/01/07 01:10:57;;;;;;;3.97;0.85;;;;;;;2.18;100.00;100243.06;5061018;28;20062;-49
2022/01/07 01:13:22;;;;;;;5.78;1.65;;;;;;;2.14;100.00;100250.38;5063059;28;20723;-49
2022/01/07 01:15:48;;;;;;;1.10;0.35;;;;;;;2.06;100.00;100244.19;5063562;28;20533;-51
2022/01/07 01:18:13;;;;;;;3.85;0.55;;;;;;;2.10;100.00;100253.41;5062071;28;20069;-50
2022/01/07 01:20:39;;;;;;;2.28;0.20;;;;;;;1.97;100.00;100256.31;5063570;28;20025;-47
2022/01/07 01:23:05;;;;;;;6.05;0.30;;;;;;;1.92;100.00;100256.75;5062327;28;20047;-49
2022/01/07 01:25:31;;;;;;;14.43;1.67;;;;;;;2.02;100.00;100258.53;5061598;28;20173;-50
2022/01/07 01:27:56;;;;;;;9.00;1.85;;;;;;;2.02;100.00;100250.69;5052337;28;20028;-49
2022/01/07 01:30:26;;;;;;;1.25;0.10;;;;;;;1.94;100.00;100246.97;5066382;28;20044;-48
2022/01/07 01:32:53;;;;;;;0.98;0.20;;;;;;;2.00;100.00;100248.19;5060516;28;20041;-51
2022/01/07 01:35:19;;;;;;;2.15;0.82;;;;;;;2.02;100.00;100251.50;5060303;28;20024;-50
2022/01/07 01:37:48;;;;;;;7.45;1.65;;;;;;;2.03;100.00;100258.38;5059949;28;20073;-48
2022/01/07 01:40:14;;;;;;;9.43;0.28;;;;;;;1.99;100.00;100262.25;5066481;28;20490;-50
2022/01/07 01:42:40;;;;;;;1.13;0.10;;;;;;;2.04;100.00;100257.41;5058238;28;20078;-49
2022/01/07 01:45:08;;;;;;;1.67;0.00;;;;;;;2.02;100.00;100256.72;5055478;28;20040;-53
2022/01/07 01:47:34;;;;;;;0.30;0.10;;;;;;;1.88;100.00;100252.75;5062913;28;20025;-48
2022/01/07 01:50:00;;;;;;;2.35;1.05;;;;;;;1.80;100.00;100250.00;5063694;28;21204;-51
2022/01/07 01:52:25;;;;;;;0.55;0.00;;;;;;;1.75;100.00;100252.22;5055044;28;20039;-50
2022/01/07 01:54:50;;;;;;;2.80;0.35;;;;;;;1.62;100.00;100246.47;5057543;28;20449;-52
2022/01/07 01:57:16;;;;;;;0.80;0.20;;;;;;;1.51;100.00;100250.03;5061791;28;20389;-51
2022/01/07 01:59:41;;;;;;;1.55;1.00;;;;;;;1.48;100.00;100256.38;5055428;28;20405;-49
2022/01/07 02:02:08;;;;;;;2.85;0.10;;;;;;;1.46;100.00;100262.69;5060951;28;20029;-48
2022/01/07 02:04:34;;;;;;;1.50;0.22;;;;;;;1.44;100.00;100265.44;5059734;28;20059;-46
2022/01/07 02:07:00;;;;;;;1.45;0.10;;;;;;;1.52;100.00;100256.91;5059696;28;20040;-51
2022/01/07 02:09:34;;;;;;;4.68;0.75;;;;;;;1.69;100.00;100258.84;5061685;28;20033;-52
2022/01/07 02:11:59;;;;;;;1.88;0.17;;;;;;;1.91;100.00;100251.63;5062753;28;20040;-49
2022/01/07 02:14:25;;;;;;;1.05;0.73;;;;;;;1.86;100.00;100244.25;5058823;28;20025;-50
2022/01/07 02:16:50;;;;;;;1.58;0.13;;;;;;;1.82;100.00;100235.00;5060422;28;20033;-48
2022/01/07 02:19:15;;;;;;;0.30;0.08;;;;;;;1.78;100.00;100235.44;5061846;28;20024;-50
2022/01/07 02:21:41;;;;;;;4.80;0.45;;;;;;;1.78;100.00;100244.09;5062572;28;20097;-49
2022/01/07 02:24:06;;;;;;;6.55;2.03;;;;;;;1.94;100.00;100252.19;5061780;28;20116;-48
2022/01/07 02:26:33;;;;;;;0.60;0.00;;;;;;;2.01;100.00;100243.78;5053367;28;20036;-51
2022/01/07 02:28:59;;;;;;;0.80;0.20;;;;;;;1.93;100.00;100245.31;5062786;28;20029;-50
2022/01/07 02:31:25;;;;;;;7.88;2.20;;;;;;;1.83;100.00;100241.06;5061588;28;20036;-52
2022/01/07 02:33:50;;;;;;;5.28;1.08;;;;;;;1.86;100.00;100259.94;5061319;28;20037;-50
2022/01/07 02:36:16;;;;;;;10.70;1.30;;;;;;;1.85;100.00;100247.81;5057919;28;20045;-47
2022/01/07 02:38:41;;;;;;;2.95;0.10;;;;;;;1.82;100.00;100253.31;5057960;28;20116;-48
2022/01/07 02:41:07;;;;;;;0.88;0.22;;;;;;;1.80;100.00;100242.16;5061776;28;20016;-49
2022/01/07 02:43:32;;;;;;;2.55;0.10;;;;;;;1.88;100.00;100251.94;5058147;28;20112;-53
2022/01/07 02:45:58;;;;;;;5.10;0.20;;;;;;;1.98;100.00;100242.28;5062216;28;20561;-51
2022/01/07 02:48:23;;;;;;;2.47;0.35;;;;;;;2.01;100.00;100238.56;5059810;28;20398;-46
2022/01/07 02:50:49;;;;;;;0.88;0.22;;;;;;;2.05;100.00;100226.84;5059329;28;20048;-51
2022/01/07 02:53:14;;;;;;;1.65;0.30;;;;;;;2.08;100.00;100222.16;5058014;28;20072;-49
2022/01/07 02:55:42;;;;;;;4.10;0.20;;;;;;;2.15;100.00;100220.63;5061569;28;20033;-53
2022/01/07 02:58:09;;;;;;;0.50;0.20;;;;;;;2.17;100.00;100223.09;5059779;28;20379;-48
2022/01/07 03:00:35;;;;;;;1.17;0.10;;;;;;;2.04;100.00;100218.19;5054255;28;20301;-47
2022/01/07 03:03:02;;;;;;;0.85;0.05;;;;;;;2.00;100.00;100219.44;5058789;28;20045;-53
2022/01/07 03:05:28;;;;;;;4.93;0.00;;;;;;;1.93;100.00;100224.38;5059412;28;20068;-49
2022/01/07 03:07:53;;;;;;;3.08;0.08;;;;;;;1.83;100.00;100215.72;5058645;28;20102;-49
2022/01/07 03:10:22;;;;;;;1.17;0.00;;;;;;;1.82;100.00;100216.72;5064557;28;20405;-46
2022/01/07 03:12:47;;;;;;;0.00;0.00;;;;;;;1.86;100.00;100212.88;5060828;28;20072;-50
2022/01/07 03:15:13;;;;;;;0.68;0.10;;;;;;;1.92;100.00;100208.84;5062051;28;20246;-52
2022/01/07 03:17:40;;;;;;;2.80;0.00;;;;;;;1.95;100.00;100208.56;5060772;28;20381;-50
2022/01/07 03:20:08;;;;;;;3.40;0.15;;;;;;;2.09;100.00;100209.91;5061090;28;20278;-49
2022/01/07 03:22:33;;;;;;;0.80;0.10;;;;;;;2.06;100.00;100199.72;5059628;28;20032;-48
2022/01/07 03:24:58;;;;;;;1.60;0.00;;;;;;;2.06;100.00;100205.78;5058401;28;20086;-47
2022/01/07 03:27:24;;;;;;;2.85;0.17;;;;;;;2.03;100.00;100205.25;5056425;28;20111;-47
2022/01/07 03:29:49;;;;;;;0.43;0.43;;;;;;;1.93;100.00;100208.69;5058976;28;20037;-48
2022/01/07 03:32:14;;;;;;;1.10;0.40;;;;;;;1.78;100.00;100207.50;5057057;28;20042;-48
2022/01/07 03:34:40;;;;;;;1.85;0.10;;;;;;;1.83;100.00;100197.44;5057290;28;20036;-50
2022/01/07 03:37:05;;;;;;;1.45;0.10;;;;;;;1.73;100.00;100197.47;5058222;28;20054;-51
2022/01/07 03:39:31;;;;;;;3.30;0.30;;;;;;;1.61;100.00;100197.78;5060218;28;20060;-51
2022/01/07 03:41:56;;;;;;;0.77;0.10;;;;;;;1.61;100.00;100209.06;5057335;28;20490;-50
2022/01/07 03:44:21;;;;;;;1.73;0.00;;;;;;;1.68;100.00;100210.16;5057857;28;20083;-52
2022/01/07 03:46:47;;;;;;;0.15;0.15;;;;;;;1.74;100.00;100219.22;5056747;28;20409;-51
2022/01/07 03:49:12;;;;;;;2.35;0.40;;;;;;;1.84;100.00;100216.59;5056536;28;20474;-50
2022/01/07 03:51:37;;;;;;;2.17;0.08;;;;;;;1.83;100.00;100228.81;5051758;28;20067;-49
2022/01/07 03:54:03;;;;;;;0.65;0.60;;;;;;;1.85;100.00;100231.28;5061691;28;20028;-50
2022/01/07 03:56:28;;;;;;;1.95;0.38;;;;;;;1.83;100.00;100223.59;5059235;28;20032;-49
2022/01/07 03:58:54;;;;;;;0.52;0.08;;;;;;;1.77;100.00;100226.78;5060211;28;20039;-49
2022/01/07 04:01:19;;;;;;;5.97;0.00;;;;;;;1.70;100.00;100210.00;5059517;28;20119;-52
2022/01/07 04:03:45;;;;;;;2.03;1.13;;;;;;;1.76;100.00;100212.06;5059039;28;20473;-50
2022/01/07 04:06:10;;;;;;;1.27;0.45;;;;;;;1.77;100.00;100208.47;5055104;28;20045;-51
2022/01/07 04:08:35;;;;;;;0.00;0.00;;;;;;;1.73;100.00;100200.09;5061779;28;20531;-49
2022/01/07 04:11:01;;;;;;;32.22;0.98;;;;;;;1.69;100.00;100200.50;5060342;28;20040;-49
2022/01/07 04:13:26;;;;;;;1.20;0.68;;;;;;;1.71;100.00;100199.41;5058939;28;20459;-47
2022/01/07 04:15:51;;;;;;;5.80;1.08;;;;;;;1.72;100.00;100205.44;5058459;28;20036;-51
2022/01/07 04:18:17;;;;;;;0.45;0.10;;;;;;;1.75;100.00;100185.06;5061264;28;20035;-50
2022/01/07 04:20:42;;;;;;;0.47;0.22;;;;;;;1.72;100.00;100195.00;5057527;28;20029;-50
2022/01/07 04:23:09;;;;;;;2.35;0.38;;;;;;;1.69;100.00;100197.91;5060179;28;20058;-52
2022/01/07 04:25:35;;;;;;;1.55;0.22;;;;;;;1.64;100.00;100211.38;5059303;28;20490;-51
2022/01/07 04:28:03;;;;;;;4.53;0.03;;;;;;;1.61;100.00;100209.06;5056017;28;20032;-52
2022/01/07 04:30:31;;;;;;;1.50;0.00;;;;;;;1.53;100.00;100194.06;5057557;28;20393;-46
2022/01/07 04:32:58;;;;;;;7.55;0.73;;;;;;;1.45;100.00;100201.78;5056488;28;20119;-50
2022/01/07 04:35:24;;;;;;;3.47;0.68;;;;;;;1.43;100.00;100198.47;5060545;28;20028;-49
2022/01/07 04:37:50;;;;;;;0.10;0.00;;;;;;;1.38;100.00;100203.28;5058750;28;20144;-52
2022/01/07 04:40:17;;;;;;;2.50;0.10;;;;;;;1.33;100.00;100194.22;5057415;28;20569;-53
2022/01/07 04:42:43;;;;;;;1.75;0.00;;;;;;;1.24;100.00;100201.94;5057053;28;20211;-50
2022/01/07 04:45:10;;;;;;;2.97;0.20;;;;;;;1.20;100.00;100191.88;5060385;28;20032;-50
2022/01/07 04:47:37;;;;;;;0.40;0.10;;;;;;;1.15;100.00;100186.25;5059178;28;20485;-50
2022/01/07 04:50:05;;;;;;;1.90;0.17;;;;;;;1.14;100.00;100208.13;5060631;28;20153;-50
2022/01/07 04:52:31;;;;;;;1.92;0.10;;;;;;;1.00;100.00;100197.09;5055547;28;20041;-48
2022/01/07 04:54:56;;;;;;;0.25;0.00;;;;;;;1.13;100.00;100183.75;5058004;28;20123;-48
2022/01/07 04:57:21;;;;;;;1.20;0.03;;;;;;;1.16;100.00;100191.34;5058978;28;20041;-53
2022/01/07 04:59:47;;;;;;;1.80;0.32;;;;;;;1.11;100.00;100187.47;5059530;28;20036;-50
2022/01/07 05:02:12;;;;;;;2.83;0.10;;;;;;;1.10;100.00;100189.28;5058213;28;20061;-50
2022/01/07 05:04:38;;;;;;;3.00;0.30;;;;;;;1.08;100.00;100192.03;5056640;28;20419;-48
2022/01/07 05:07:03;;;;;;;2.60;0.40;;;;;;;1.14;100.00;100187.22;5058089;28;20040;-49
2022/01/07 05:09:29;;;;;;;0.15;0.00;;;;;;;1.08;100.00;100172.91;5057704;28;20527;-47
2022/01/07 05:11:54;;;;;;;0.55;0.05;;;;;;;1.06;100.00;100183.50;5058452;28;20040;-47
2022/01/07 05:14:20;;;;;;;0.50;0.20;;;;;;;1.11;100.00;100184.88;5059686;28;20032;-48
2022/01/07 05:16:46;;;;;;;0.00;0.00;;;;;;;1.15;100.00;100186.25;5061327;28;20116;-51
2022/01/07 05:19:13;;;;;;;4.18;0.20;;;;;;;1.08;100.00;100181.59;5059603;28;20032;-48
2022/01/07 05:21:39;;;;;;;0.00;0.00;;;;;;;0.98;100.00;100191.19;5054812;28;20622;-53
2022/01/07 05:24:06;;;;;;;1.90;0.03;;;;;;;0.91;100.00;100184.88;5059063;28;20039;-50
2022/01/07 05:26:32;;;;;;;0.63;0.20;;;;;;;0.79;100.00;100191.16;5062026;28;20047;-51
2022/01/07 05:28:57;;;;;;;0.00;0.00;;;;;;;0.70;100.00;100197.16;5060853;28;20039;-50
2022/01/07 05:31:23;;;;;;;0.88;0.10;;;;;;;0.69;100.00;100203.38;5058446;28;20029;-48
2022/01/07 05:33:53;;;;;;;1.27;0.10;;;;;;;0.79;100.00;100199.81;5062608;28;20401;-51
2022/01/07 05:36:19;;;;;;;1.55;0.15;;;;;;;0.84;100.00;100197.63;5064330;28;20101;-50
2022/01/07 05:38:46;;;;;;;0.68;0.10;;;;;;;0.81;100.00;100195.28;5063224;28;20123;-50
2022/01/07 05:41:11;;;;;;;2.35;0.00;;;;;;;0.84;100.00;100210.66;5053400;28;20051;-51
2022/01/07 05:43:36;;;;;;;2.08;0.00;;;;;;;0.84;100.00;100204.63;5063130;28;20024;-52
2022/01/07 05:46:02;;;;;;;0.63;0.08;;;;;;;0.82;100.00;100204.75;5060475;28;20368;-49
2022/01/07 05:48:28;;;;;;;4.35;0.43;;;;;;;0.79;100.00;100214.66;5057049;28;20036;-49
2022/01/07 05:50:53;;;;;;;1.48;0.15;;;;;;;0.71;100.00;100230.97;5059007;28;20072;-50
2022/01/07 05:53:19;;;;;;;0.20;0.00;;;;;;;0.62;100.00;100231.75;5061613;28;20040;-48
2022/01/07 05:55:44;;;;;;;4.57;0.03;;;;;;;0.49;100.00;100226.81;5065565;28;20028;-48
2022/01/07 05:58:10;;;;;;;3.00;0.10;;;;;;;0.45;100.00;100228.00;5060739;28;20102;-50
2022/01/07 06:00:36;;;;;;;2.60;0.32;;;;;;;0.57;100.00;100229.56;5057515;28;20036;-50
2022/01/07 06:03:01;;;;;;;0.22;0.10;;;;;;;0.77;100.00;100235.66;5062114;28;20037;-47
2022/01/07 06:05:27;;;;;;;3.53;0.30;;;;;;;0.84;100.00;100235.94;5064447;28;20070;-54
2022/01/07 06:07:52;;;;;;;0.90;0.00;;;;;;;0.89;100.00;100223.31;5059792;28;20041;-48
2022/01/07 06:10:17;;;;;;;1.90;0.95;;;;;;;0.76;100.00;100234.00;5062132;28;20040;-49
2022/01/07 06:12:43;;;;;;;4.70;0.28;;;;;;;0.68;100.00;100238.25;5061463;28;20044;-47
2022/01/07 06:15:09;;;;;;;0.95;0.75;;;;;;;0.61;100.00;100236.16;5064616;28;20509;-52
2022/01/07 06:17:35;;;;;;;2.53;0.10;;;;;;;0.49;100.00;100228.56;5078733;28;20037;-50
2022/01/07 06:20:00;;;;;;;2.45;0.05;;;;;;;0.51;100.00;100229.25;5064045;28;20111;-49
2022/01/07 06:22:26;;;;;;;2.75;0.20;;;;;;;0.52;100.00;100220.50;5056234;28;20119;-51
2022/01/07 06:24:51;;;;;;;1.35;0.08;;;;;;;0.48;100.00;100225.13;5062218;28;20100;-54
2022/01/07 06:27:17;;;;;;;0.95;0.08;;;;;;;0.48;100.00;100219.09;5058537;28;20043;-49
2022/01/07 06:29:42;;;;;;;2.30;0.08;;;;;;;0.47;100.00;100226.09;5061095;28;20054;-49
2022/01/07 06:32:08;;;;;;;3.85;0.15;;;;;;;0.42;100.00;100229.09;5059339;28;20036;-50
2022/01/07 06:34:34;;;;;;;2.45;0.90;;;;;;;0.58;100.00;100231.22;5060056;28;20056;-50
2022/01/07 06:37:00;;;;;;;0.98;0.40;;;;;;;0.67;100.00;100233.97;5059160;28;20039;-50
2022/01/07 06:39:28;;;;;;;1.10;0.15;;;;;;;0.64;100.00;100224.63;5059549;28;20137;-48
2022/01/07 06:41:54;;;;;;;2.85;0.10;;;;;;;0.68;100.00;100220.00;5058150;28;20503;-50
2022/01/07 06:44:19;;;;;;;2.88;0.30;;;;;;;0.63;100.00;100218.59;5063654;28;20036;-48
2022/01/07 06:46:45;;;;;;;2.72;0.95;;;;;;;0.53;100.00;100217.75;5057089;28;20104;-51
2022/01/07 06:49:10;;;;;;;2.75;0.30;;;;;;;0.48;100.00;100219.91;5055263;28;20488;-52
2022/01/07 06:51:36;;;;;;;2.38;0.43;;;;;;;0.47;100.00;100218.28;5065716;28;20060;-48
2022/01/07 06:54:01;;;;;;;5.00;0.20;;;;;;;0.42;100.00;100208.25;5057326;28;20125;-48
2022/01/07 06:56:28;;;;;;;2.35;0.65;;;;;;;0.38;100.00;100204.22;5051373;28;20025;-50
2022/01/07 06:58:54;;;;;;;0.60;0.03;;;;;;;0.38;100.00;100203.41;5065879;28;20849;-52
2022/01/07 07:01:20;;;;;;;1.77;0.30;;;;;;;0.40;100.00;100207.53;5061833;28;20036;-54
2022/01/07 07:03:45;;;;;;;2.67;0.50;;;;;;;0.37;100.00;100196.56;5059237;28;20032;-47
2022/01/07 07:06:12;;;;;;;5.40;0.10;;;;;;;0.36;100.00;100203.56;5048821;28;20108;-49
2022/01/07 07:08:37;;;;;;;8.10;0.30;;;;;;;0.45;100.00;100209.75;5059543;28;20028;-49
2022/01/07 07:11:03;;;;;;;6.75;0.47;;;;;;;0.46;100.00;100202.75;5056667;28;20501;-51
2022/01/07 07:13:28;;;;;;;2.00;0.45;;;;;;;0.40;100.00;100201.50;5055409;28;20120;-52
2022/01/07 07:15:53;;;;;;;2.22;0.93;;;;;;;0.35;100.00;100201.88;5058646;28;20039;-48
2022/01/07 07:18:19;;;;;;;4.85;0.90;;;;;;;0.32;100.00;100202.16;5058710;28;20044;-50
2022/01/07 07:20:44;;;;;;;1.33;0.10;;;;;;;0.41;100.00;100205.75;5053826;28;20036;-53
2022/01/07 07:23:10;;;;;;;1.05;0.10;;;;;;;0.31;100.00;100203.13;5051711;28;20083;-50
2022/01/07 07:25:38;;;;;;;0.90;0.00;;;;;;;0.25;100.00;100198.41;5053496;28;20040;-53
2022/01/07 07:28:03;;;;;;;3.15;0.20;;;;;;;0.17;100.00;100206.06;5058962;28;20430;-48
2022/01/07 07:30:35;;;;;;;2.03;0.10;;;;;;;0.12;100.00;100214.28;5061010;28;20214;-47
2022/01/07 07:33:27;;;;;;;3.45;0.08;;;;;;;0.14;100.00;100212.38;5061912;28;20044;-47
2022/01/07 07:38:11;;;;;;;1.80;0.20;;;;;;;0.52;100.00;100212.66;5061747;28;20036;-49
2022/01/07 07:40:37;;;;;;;7.25;0.30;;;;;;;0.40;100.00;100211.94;5061734;28;20090;-52
2022/01/07 07:43:02;;;;;;;10.90;0.45;;;;;;;0.37;100.00;100212.19;5054105;28;20530;-50
2022/01/07 07:45:27;;;;;;;4.45;0.08;;;;;;;0.34;100.00;100212.47;5053319;28;20055;-47
2022/01/07 07:47:53;;;;;;;1.13;0.08;;;;;;;0.29;100.00;100210.25;5057920;28;20473;-50
2022/01/07 07:50:18;;;;;;;4.50;2.10;;;;;;;0.33;100.00;100216.03;5054610;28;20752;-50
2022/01/07 07:52:44;;;;;;;2.58;0.17;;;;;;;0.42;100.00;100210.03;5054721;28;20033;-50
2022/01/07 07:55:09;;;;;;;1.17;0.30;;;;;;;0.34;100.00;100212.47;5053100;28;20047;-50
2022/01/07 07:57:35;;;;;;;0.22;0.00;;;;;;;0.27;100.00;100211.34;5051487;28;20033;-50
2022/01/07 08:00:00;;;;;;;1.55;0.00;;;;;;;0.24;100.00;100209.00;5052421;28;20041;-48
2022/01/07 08:02:30;;;;;;;4.65;0.30;;;;;;;0.15;100.00;100218.41;5051656;28;20101;-48
2022/01/07 08:04:55;;;;;;;1.88;0.35;;;;;;;0.19;100.00;100218.03;5053173;28;20586;-47
2022/01/07 08:07:21;;;;;;;0.20;0.03;;;;;;;0.21;100.00;100213.50;5051332;28;20135;-46
2022/01/07 08:09:49;;;;;;;1.00;0.10;;;;;;;0.14;100.00;100214.97;5053335;28;20043;-52
2022/01/07 08:12:29;;;;;;;5.47;0.40;;;;;;;0.10;100.00;100225.78;5056454;28;20033;-48
2022/01/07 08:17:39;;;;;;;0.57;0.22;;;;;;;-0.05;100.00;100210.50;5054880;28;20244;-52
2022/01/07 08:20:05;;;;;;;0.17;0.15;;;;;;;-0.09;100.00;100210.88;5051114;28;20036;-50
2022/01/07 08:22:31;;;;;;;4.68;0.38;;;;;;;-0.16;100.00;100215.78;5053924;28;20033;-48
2022/01/07 08:24:56;;;;;;;3.60;0.20;;;;;;;-0.10;100.00;100220.50;5052910;28;20086;-49
2022/01/07 08:27:22;;;;;;;6.38;0.50;;;;;;;-0.06;100.00;100223.66;5053206;28;20382;-51
2022/01/07 08:29:47;;;;;;;3.30;0.90;;;;;;;0.07;100.00;100239.09;5053023;28;20029;-47
2022/01/07 08:34:58;;;;;;;5.47;0.80;;;;;;;-0.01;100.00;100235.34;5053059;28;20113;-53
2022/01/07 08:37:28;;;;;;;3.33;0.22;;;;;;;-0.03;100.00;100242.50;5052810;28;20068;-51
2022/01/07 08:39:56;;;;;;;5.72;0.47;;;;;;;-0.03;100.00;100242.50;5057060;28;20064;-52
2022/01/07 08:42:23;;;;;;;3.53;0.57;;;;;;;0.09;100.00;100239.78;5048396;28;20036;-51
2022/01/07 08:44:52;;;;;;;1.13;0.13;;;;;;;0.21;100.00;100244.81;5053500;28;20472;-49
2022/01/07 08:47:22;;;;;;;6.10;1.20;;;;;;;0.30;100.00;100239.75;5058936;28;20093;-51
2022/01/07 08:49:48;;;;;;;6.40;0.50;;;;;;;0.57;100.00;100232.19;5057920;28;20182;-48
2022/01/07 08:52:14;;;;;;;10.75;0.47;;;;;;;0.57;100.00;100208.69;5062240;28;20020;-53
2022/01/07 08:54:40;;;;;;;4.38;0.15;;;;;;;0.50;100.00;100204.97;5051756;28;20583;-49
2022/01/07 08:57:05;;;;;;;1.15;0.20;;;;;;;0.71;100.00;100212.72;5053249;28;20044;-52
2022/01/07 08:59:31;;;;;;;4.30;1.02;;;;;;;0.88;100.00;100206.03;5052137;28;20033;-53
2022/01/07 09:01:56;;;;;;;5.57;0.38;;;;;;;0.93;100.00;100203.84;5057830;28;20448;-47
2022/01/07 09:04:22;;;;;;;5.80;0.30;;;;;;;0.89;100.00;100202.44;5065485;28;20032;-52
2022/01/07 09:06:48;;;;;;;1.85;0.10;;;;;;;1.08;100.00;100207.69;5056561;28;20444;-48
2022/01/07 09:09:13;;;;;;;11.30;1.88;;;;;;;1.17;100.00;100190.38;5065501;28;20025;-50
2022/01/07 09:11:39;;;;;;;0.10;0.10;;;;;;;1.24;100.00;100190.63;5067193;28;20029;-50
2022/01/07 09:14:04;;;;;;;0.98;0.10;;;;;;;1.19;100.00;100198.91;5066196;28;20047;-52
2022/01/07 09:16:30;;;;;;;0.47;0.00;;;;;;;1.11;100.00;100208.38;5067880;28;20489;-53
2022/01/07 09:18:55;;;;;;;4.43;0.15;;;;;;;1.09;100.00;100214.56;5060055;28;20029;-51
2022/01/07 09:21:20;;;;;;;0.60;0.00;;;;;;;1.14;100.00;100227.22;5058011;28;20037;-52
2022/01/07 09:23:47;;;;;;;5.30;1.02;;;;;;;1.27;100.00;100235.59;5059751;28;20053;-49
2022/01/07 09:26:13;;;;;;;7.43;1.63;;;;;;;1.29;100.00;100230.22;5059813;28;20040;-50
2022/01/07 09:28:39;;;;;;;7.32;0.30;;;;;;;1.37;100.00;100243.44;5053304;28;20033;-52
2022/01/07 09:31:04;;;;;;;0.77;0.52;;;;;;;1.50;100.00;100245.78;5063483;28;20382;-50
2022/01/07 09:33:30;;;;;;;3.13;0.60;;;;;;;1.57;100.00;100225.13;5054793;28;20037;-53
2022/01/07 09:35:55;;;;;;;2.47;0.20;;;;;;;1.51;100.00;100235.19;5057195;28;20029;-50
2022/01/07 09:38:21;;;;;;;3.63;0.30;;;;;;;1.51;100.00;100242.19;5061252;28;20098;-51
2022/01/07 09:40:49;;;;;;;2.33;0.15;;;;;;;1.60;100.00;100232.69;5060469;28;20041;-54
2022/01/07 09:43:15;;;;;;;4.22;0.30;;;;;;;1.62;100.00;100233.38;5058982;28;20082;-52
2022/01/07 09:45:41;;;;;;;5.95;1.08;;;;;;;1.63;100.00;100235.06;5059318;28;20032;-48
2022/01/07 09:48:08;;;;;;;1.45;0.38;;;;;;;1.61;100.00;100234.38;5059772;28;20032;-50
2022/01/07 09:50:35;;;;;;;8.55;1.10;;;;;;;1.63;100.00;100242.91;5060864;28;20033;-49
2022/01/07 09:53:06;;;;;;;4.88;0.10;;;;;;;1.61;100.00;100255.28;5063936;28;20070;-52
2022/01/07 09:55:31;;;;;;;4.88;0.25;;;;;;;1.61;100.00;100257.88;5061141;28;20047;-53
2022/01/07 09:57:57;;;;;;;2.60;0.03;;;;;;;1.65;100.00;100274.91;5055895;28;20525;-50
2022/01/07 10:00:22;;;;;;;8.48;0.28;;;;;;;1.64;100.00;100281.13;5060649;28;20029;-49
2022/01/07 10:02:59;;;;;;;3.55;0.20;;;;;;;1.86;100.00;100291.31;5053422;28;20036;-52
2022/01/07 10:05:24;;;;;;;0.50;0.15;;;;;;;1.94;100.00;100288.81;5059995;28;20032;-49
2022/01/07 10:07:50;;;;;;;3.90;0.55;;;;;;;2.06;100.00;100286.84;5064234;28;20202;-56
2022/01/07 10:10:18;;;;;;;3.55;0.30;;;;;;;2.06;100.00;100296.50;5061947;28;20044;-52
2022/01/07 10:12:59;;;;;;;2.35;0.10;;;;;;;2.19;100.00;100281.31;5054640;28;20024;-53
2022/01/07 10:15:34;;;;;;;4.70;0.25;;;;;;;2.17;100.00;100281.47;5055616;28;20072;-52
2022/01/07 10:18:04;;;;;;;1.67;0.30;;;;;;;2.15;100.00;100274.72;5063792;28;20044;-52
2022/01/07 10:20:37;;;;;;;2.10;0.00;;;;;;;2.23;100.00;100292.34;5058675;28;20120;-51
2022/01/07 10:23:05;;;;;;;2.67;0.32;;;;;;;2.20;100.00;100297.84;5061254;28;20035;-52
2022/01/07 10:25:36;;;;;;;4.72;0.10;;;;;;;2.28;100.00;100287.50;5058946;28;20040;-52
2022/01/07 10:28:08;;;;;;;4.07;0.47;;;;;;;2.39;100.00;100275.06;5063007;28;20124;-51
2022/01/07 10:30:42;;;;;;;0.88;0.35;;;;;;;2.48;100.00;100277.78;5053014;28;20135;-51
2022/01/07 10:33:21;;;;;;;0.60;0.20;;;;;;;2.47;100.00;100286.63;5064469;28;20101;-50
2022/01/07 10:35:53;;;;;;;1.38;0.25;;;;;;;2.60;100.00;100287.94;5055626;28;20119;-50
2022/01/07 10:38:22;;;;;;;4.63;0.60;;;;;;;2.60;100.00;100297.59;5059563;28;20422;-57
2022/01/07 10:40:49;;;;;;;2.63;0.28;;;;;;;2.70;100.00;100279.22;5065555;28;20074;-51
2022/01/07 10:43:24;;;;;;;4.53;1.35;;;;;;;2.84;100.00;100269.09;5054912;28;20067;-53
2022/01/07 10:45:55;;;;;;;1.95;0.38;;;;;;;2.88;100.00;100261.75;5055089;28;20132;-56
2022/01/07 10:48:22;;;;;;;;;;;;;;;2.85;100.00;100254.19;5061071;28;20124;-55
2022/01/07 10:50:52;;;;;;;2.28;0.10;;;;;;;2.87;100.00;100243.59;5052064;28;20039;-52
2022/01/07 10:53:28;;;;;;;3.00;0.40;;;;;;;2.91;100.00;100248.38;5058060;28;20056;-52
2022/01/07 10:55:59;;;;;;;3.33;0.00;;;;;;;2.97;100.00;100266.13;5067027;28;20044;-52
2022/01/07 10:58:26;;;;;;;4.60;0.65;;;;;;;3.02;100.00;100273.53;5060424;28;20052;-54
2022/01/07 11:00:51;;;;;;;2.10;1.00;;;;;;;3.19;100.00;100282.41;5053378;28;20135;-50
2022/01/07 11:03:16;;;;;;;0.75;0.10;;;;;;;3.26;100.00;100284.28;5062251;28;20430;-53
2022/01/07 11:05:42;;;;;;;3.60;0.25;;;;;;;3.38;100.00;100274.41;5059564;28;20499;-49
2022/01/07 11:08:08;;;;;;;10.88;1.95;;;;;;;3.45;100.00;100264.13;5057914;28;20076;-53
2022/01/07 11:10:34;;;;;;;1.88;0.28;;;;;;;3.59;100.00;100270.63;5063475;28;20512;-52
2022/01/07 11:13:00;;;;;;;2.28;0.10;;;;;;;3.70;100.00;100273.03;5050157;28;20033;-52
2022/01/07 11:15:26;;;;;;;2.17;0.20;;;;;;;3.76;100.00;100256.69;5063756;28;20081;-55
2022/01/07 11:17:51;;;;;;;1.98;0.20;;;;;;;3.76;100.00;100255.88;5064643;28;20519;-48
2022/01/07 11:20:24;;;;;;;0.60;0.13;;;;;;;3.82;100.00;100250.88;5060047;28;20553;-52
2022/01/07 11:22:51;;;;;;;0.30;0.03;;;;;;;3.93;100.00;100261.09;5057109;28;20048;-49
2022/01/07 11:25:17;;;;;;;3.15;0.10;;;;;;;4.00;100.00;100250.81;5060867;28;20587;-49
2022/01/07 11:27:54;;;;;;;2.08;0.20;;;;;;;3.97;100.00;100251.09;5062993;28;20037;-50